Time;durP1;ratioP1;P1;durP2;ratioP2;P2;SDS_P1;SDS_P2;PMS_P1;PMS_P2;Temp;Humidity;BMP_temperature;BMP_pressure;BME280_temperature;BME280_humidity;BME280_pressure;Samples;Min_cycle;Max_cycle;Signal;HPM_P1;HPM_P2
2024/04/14 00:00:56;;;;;;;;;;;;;;;;;;6692663;26;19925;-60
2024/04/14 00:04:04;;;;;;;;;;;;;;;;;;6694026;26;19926;-60
2024/04/14 00:07:11;;;;;;;;;;;;;;;;;;6694427;26;19933;-60
2024/04/14 00:10:16;;;;;;;;;;;;;;;;;;6694299;26;19930;-60
2024/04/14 00:13:19;;;;;;;;;;;;;;;;;;6691907;26;19932;-60
2024/04/14 00:16:24;;;;;;;;;;;;;;;;;;6693954;26;19933;-60
2024/04/14 00:19:29;;;;;;;;;;;;;;;;;;6692621;26;19926;-60
2024/04/14 00:22:35;;;;;;;;;;;;;;;;;;6693471;26;19925;-60
2024/04/14 00:25:38;;;;;;;;;;;;;;;;;;6692978;26;20007;-60
2024/04/14 00:28:44;;;;;;;;;;;;;;;;;;6693128;26;19933;-60
2024/04/14 00:31:46;;;;;;;;;;;;;;;;;;6693657;26;19954;-60
2024/04/14 00:34:55;;;;;;;;;;;;;;;;;;6692953;26;20111;-60
2024/04/14 00:37:58;;;;;;;;;;;;;;;;;;6692955;26;19926;-60
2024/04/14 00:41:04;;;;;;;;;;;;;;;;;;6692897;26;19926;-60
2024/04/14 00:44:06;;;;;;;;;;;;;;;;;;6652974;26;19933;-60
2024/04/14 00:47:11;;;;;;;;;;;;;;;;;;6649891;26;20202;-60
2024/04/14 00:50:19;;;;;;;;;;;;;;;;;;6649242;26;20123;-60
2024/04/14 00:53:25;;;;;;;;;;;;;;;;;;6648956;26;19934;-60
2024/04/14 00:56:27;;;;;;;;;;;;;;;;;;6649744;26;19934;-60
2024/04/14 00:59:33;;;;;;;;;;;;;;;;;;6649859;26;19926;-60
2024/04/14 01:02:38;;;;;;;;;;;;;;;;;;6648597;26;20540;-60
2024/04/14 01:05:46;;;;;;;;;;;;;;;;;;6649422;26;19926;-60
2024/04/14 01:08:48;;;;;;;;;;;;;;;;;;6649020;26;19926;-61
2024/04/14 01:11:54;;;;;;;;;;;;;;;;;;6685245;26;19925;-61
2024/04/14 01:14:57;;;;;;;;;;;;;;;;;;6692051;26;19926;-60
2024/04/14 01:18:02;;;;;;;;;;;;;;;;;;6691866;26;19933;-60
2024/04/14 01:21:10;;;;;;;;;;;;;;;;;;6691579;26;20119;-60
2024/04/14 01:24:16;;;;;;;;;;;;;;;;;;6689614;26;19926;-60
2024/04/14 01:27:21;;;;;;;;;;;;;;;;;;6692274;26;19926;-60
2024/04/14 01:30:27;;;;;;;;;;;;;;;;;;6690771;26;19973;-60
2024/04/14 01:33:33;;;;;;;;;;;;;;;;;;6691133;26;19926;-60
2024/04/14 01:36:35;;;;;;;;;;;;;;;;;;6691296;26;19929;-60
2024/04/14 01:39:41;;;;;;;;;;;;;;;;;;6691806;26;20119;-60
2024/04/14 01:42:46;;;;;;;;;;;;;;;;;;6691772;26;20134;-61
2024/04/14 01:45:51;;;;;;;;;;;;;;;;;;6692333;26;19933;-60
2024/04/14 01:48:54;;;;;;;;;;;;;;;;;;6691203;26;19932;-60
2024/04/14 01:51:59;;;;;;;;;;;;;;;;;;6691495;26;20090;-60
2024/04/14 01:55:05;;;;;;;;;;;;;;;;;;6692638;26;20014;-60
2024/04/14 01:58:13;;;;;;;;;;;;;;;;;;6691194;26;19925;-60
2024/04/14 02:01:16;;;;;;;;;;;;;;;;;;6690553;26;19932;-60
2024/04/14 02:04:21;;;;;;;;;;;;;;;;;;6691304;26;19939;-60
2024/04/14 02:07:24;;;;;;;;;;;;;;;;;;6691410;26;19956;-61
2024/04/14 02:10:29;;;;;;;;;;;;;;;;;;6691655;26;19926;-60
2024/04/14 02:13:37;;;;;;;;;;;;;;;;;;6659884;26;19993;-60
2024/04/14 02:16:40;;;;;;;;;;;;;;;;;;6690678;26;20332;-60
2024/04/14 02:19:48;;;;;;;;;;;;;;;;;;6690159;26;19933;-60
2024/04/14 02:22:51;;;;;;;;;;;;;;;;;;6690590;26;20103;-60
2024/04/14 02:25:57;;;;;;;;;;;;;;;;;;6691350;26;20129;-60
2024/04/14 02:29:02;;;;;;;;;;;;;;;;;;6690605;26;19926;-60
2024/04/14 02:32:07;;;;;;;;;;;;;;;;;;6690761;26;19925;-60
2024/04/14 02:35:10;;;;;;;;;;;;;;;;;;6690235;26;19925;-60
2024/04/14 02:38:15;;;;;;;;;;;;;;;;;;6694671;26;19961;-60
2024/04/14 02:41:20;;;;;;;;;;;;;;;;;;6695427;26;20019;-60
2024/04/14 02:44:26;;;;;;;;;;;;;;;;;;6694533;26;20022;-60
2024/04/14 02:47:32;;;;;;;;;;;;;;;;;;6693976;26;19929;-60
2024/04/14 02:50:36;;;;;;;;;;;;;;;;;;6695373;26;19925;-60
2024/04/14 02:53:41;;;;;;;;;;;;;;;;;;6693772;26;19926;-60
2024/04/14 02:56:44;;;;;;;;;;;;;;;;;;6694994;26;20331;-61
2024/04/14 02:59:52;;;;;;;;;;;;;;;;;;6695107;26;20045;-60
2024/04/14 03:02:55;;;;;;;;;;;;;;;;;;6674688;26;19932;-61
2024/04/14 03:06:01;;;;;;;;;;;;;;;;;;6694988;26;19926;-60
2024/04/14 03:09:04;;;;;;;;;;;;;;;;;;6694482;26;19925;-61
2024/04/14 03:12:09;;;;;;;;;;;;;;;;;;6694807;26;19929;-61
2024/04/14 03:15:15;;;;;;;;;;;;;;;;;;6694530;26;19986;-60
2024/04/14 03:18:20;;;;;;;;;;;;;;;;;;6694463;26;20647;-59
2024/04/14 03:21:22;;;;;;;;;;;;;;;;;;6694613;26;19925;-61
2024/04/14 03:24:28;;;;;;;;;;;;;;;;;;6693997;26;19953;-61
2024/04/14 03:27:31;;;;;;;;;;;;;;;;;;6694561;26;19977;-60
2024/04/14 03:30:39;;;;;;;;;;;;;;;;;;6694271;26;19926;-61
2024/04/14 03:33:41;;;;;;;;;;;;;;;;;;6693759;26;20005;-60
2024/04/14 03:36:47;;;;;;;;;;;;;;;;;;6694481;26;20009;-60
2024/04/14 03:39:52;;;;;;;;;;;;;;;;;;6693536;26;19999;-60
2024/04/14 03:42:57;;;;;;;;;;;;;;;;;;6693421;26;19926;-60
2024/04/14 03:46:06;;;;;;;;;;;;;;;;;;6693944;26;20119;-60
2024/04/14 03:49:11;;;;;;;;;;;;;;;;;;6692483;26;19964;-60
2024/04/14 03:52:14;;;;;;;;;;;;;;;;;;6693231;26;20123;-60
2024/04/14 03:55:19;;;;;;;;;;;;;;;;;;6693632;26;20446;-61
2024/04/14 03:58:22;;;;;;;;;;;;;;;;;;6693357;26;20015;-61
2024/04/14 04:01:30;;;;;;;;;;;;;;;;;;6693948;26;19933;-61
2024/04/14 04:04:33;;;;;;;;;;;;;;;;;;6693632;26;19933;-61
2024/04/14 04:07:38;;;;;;;;;;;;;;;;;;6693753;26;19932;-60
2024/04/14 04:10:44;;;;;;;;;;;;;;;;;;6693157;26;19929;-60
2024/04/14 04:13:49;;;;;;;;;;;;;;;;;;6692883;26;19999;-61
2024/04/14 04:16:55;;;;;;;;;;;;;;;;;;6693799;26;20015;-61
2024/04/14 04:20:00;;;;;;;;;;;;;;;;;;6692925;26;20262;-61
2024/04/14 04:23:03;;;;;;;;;;;;;;;;;;6692579;26;19933;-61
2024/04/14 04:26:08;;;;;;;;;;;;;;;;;;6693535;26;19926;-60
2024/04/14 04:29:10;;;;;;;;;;;;;;;;;;6693157;26;19925;-60
2024/04/14 04:32:19;;;;;;;;;;;;;;;;;;6693409;26;19983;-60
2024/04/14 04:35:21;;;;;;;;;;;;;;;;;;6692590;26;19948;-60
2024/04/14 04:38:27;;;;;;;;;;;;;;;;;;6693005;26;20035;-60
2024/04/14 04:41:30;;;;;;;;;;;;;;;;;;6693223;26;19925;-59
2024/04/14 04:44:35;;;;;;;;;;;;;;;;;;6661647;26;19929;-60
2024/04/14 04:47:41;;;;;;;;;;;;;;;;;;6693316;26;19943;-59
2024/04/14 04:50:46;;;;;;;;;;;;;;;;;;6692757;26;20029;-60
2024/04/14 04:53:51;;;;;;;;;;;;;;;;;;6692696;26;19925;-60
2024/04/14 04:56:57;;;;;;;;;;;;;;;;;;6693020;26;20822;-60
2024/04/14 05:00:02;;;;;;;;;;;;;;;;;;6691378;26;20027;-59
2024/04/14 05:03:07;;;;;;;;;;;;;;;;;;6691972;26;19932;-60
2024/04/14 05:06:13;;;;;;;;;;;;;;;;;;6692745;26;19933;-61
2024/04/14 05:09:15;;;;;;;;;;;;;;;;;;6692288;26;19933;-61
2024/04/14 05:12:21;;;;;;;;;;;;;;;;;;6692556;26;20018;-62
2024/04/14 05:15:23;;;;;;;;;;;;;;;;;;6692278;26;20254;-61
2024/04/14 05:18:31;;;;;;;;;;;;;;;;;;6691095;26;19925;-59
2024/04/14 05:21:34;;;;;;;;;;;;;;;;;;6692510;26;20036;-60
2024/04/14 05:24:39;;;;;;;;;;;;;;;;;;6691911;26;19926;-60
2024/04/14 05:27:42;;;;;;;;;;;;;;;;;;6692161;26;19929;-59
2024/04/14 05:30:48;;;;;;;;;;;;;;;;;;6691962;26;19925;-60
2024/04/14 05:33:56;;;;;;;;;;;;;;;;;;6690364;26;19929;-60
2024/04/14 05:37:02;;;;;;;;;;;;;;;;;;6692511;26;20025;-60
2024/04/14 05:40:05;;;;;;;;;;;;;;;;;;6691852;26;19926;-60
2024/04/14 05:43:10;;;;;;;;;;;;;;;;;;6691655;26;19925;-60
2024/04/14 05:46:13;;;;;;;;;;;;;;;;;;6691560;26;20008;-60
2024/04/14 05:49:20;;;;;;;;;;;;;;;;;;6691659;26;19932;-60
2024/04/14 05:52:26;;;;;;;;;;;;;;;;;;6692059;26;19932;-59
2024/04/14 05:55:31;;;;;;;;;;;;;;;;;;6661163;26;19932;-61
2024/04/14 05:58:36;;;;;;;;;;;;;;;;;;6690985;26;20134;-60
2024/04/14 06:01:39;;;;;;;;;;;;;;;;;;6691804;26;19925;-60
2024/04/14 06:04:47;;;;;;;;;;;;;;;;;;6691349;26;19926;-60
2024/04/14 06:07:52;;;;;;;;;;;;;;;;;;6692478;26;19932;-61
2024/04/14 06:10:58;;;;;;;;;;;;;;;;;;6692080;26;19933;-60
2024/04/14 06:14:01;;;;;;;;;;;;;;;;;;6695765;26;19925;-63
2024/04/14 06:17:06;;;;;;;;;;;;;;;;;;6696306;26;19925;-60
2024/04/14 06:20:14;;;;;;;;;;;;;;;;;;6695645;26;20026;-60
2024/04/14 06:23:20;;;;;;;;;;;;;;;;;;6695056;26;19930;-61
2024/04/14 06:26:23;;;;;;;;;;;;;;;;;;6696004;26;19930;-61
2024/04/14 06:29:29;;;;;;;;;;;;;;;;;;6695926;26;20122;-61
2024/04/14 06:32:36;;;;;;;;;;;;;;;;;;6696237;26;19933;-60
2024/04/14 06:35:41;;;;;;;;;;;;;;;;;;6695210;26;19997;-60
2024/04/14 06:38:46;;;;;;;;;;;;;;;;;;6695032;26;19926;-60
2024/04/14 06:41:49;;;;;;;;;;;;;;;;;;6695756;26;19926;-61
2024/04/14 06:44:54;;;;;;;;;;;;;;;;;;6695150;26;19925;-60
2024/04/14 06:47:56;;;;;;;;;;;;;;;;;;6695267;26;19929;-60
2024/04/14 06:51:05;;;;;;;;;;;;;;;;;;6695960;26;20031;-60
2024/04/14 06:54:07;;;;;;;;;;;;;;;;;;6695498;26;19925;-60
2024/04/14 06:57:13;;;;;;;;;;;;;;;;;;6696110;26;19936;-59
2024/04/14 07:00:18;;;;;;;;;;;;;;;;;;6694912;26;19925;-60
2024/04/14 07:03:21;;;;;;;;;;;;;;;;;;6694654;26;19925;-59
2024/04/14 07:06:29;;;;;;;;;;;;;;;;;;6694953;26;19933;-60
2024/04/14 07:09:32;;;;;;;;;;;;;;;;;;6694607;26;20122;-59
2024/04/14 07:12:37;;;;;;;;;;;;;;;;;;6695505;26;19925;-60
2024/04/14 07:15:42;;;;;;;;;;;;;;;;;;6694428;26;19933;-60
2024/04/14 07:18:48;;;;;;;;;;;;;;;;;;6694090;26;19933;-60
2024/04/14 07:21:56;;;;;;;;;;;;;;;;;;6693980;26;19926;-60
2024/04/14 07:24:59;;;;;;;;;;;;;;;;;;6692381;26;19925;-61
2024/04/14 07:28:04;;;;;;;;;;;;;;;;;;6694327;26;19933;-60
2024/04/14 07:31:07;;;;;;;;;;;;;;;;;;6694726;26;19933;-61
2024/04/14 07:34:12;;;;;;;;;;;;;;;;;;6694663;26;19933;-61
2024/04/14 07:37:20;;;;;;;;;;;;;;;;;;6694312;26;19933;-61
2024/04/14 07:40:23;;;;;;;;;;;;;;;;;;6694309;26;19925;-62
2024/04/14 07:43:28;;;;;;;;;;;;;;;;;;6693580;26;20019;-61
2024/04/14 07:46:31;;;;;;;;;;;;;;;;;;6694503;26;19948;-61
2024/04/14 07:49:36;;;;;;;;;;;;;;;;;;6693674;26;19925;-60
2024/04/14 07:52:42;;;;;;;;;;;;;;;;;;6694127;26;19929;-60
2024/04/14 07:55:47;;;;;;;;;;;;;;;;;;6693207;26;19926;-60
2024/04/14 07:58:50;;;;;;;;;;;;;;;;;;6694488;26;19925;-60
2024/04/14 08:01:55;;;;;;;;;;;;;;;;;;6694565;26;19926;-61
2024/04/14 08:04:58;;;;;;;;;;;;;;;;;;6694332;26;19993;-61
2024/04/14 08:08:08;;;;;;;;;;;;;;;;;;6693804;26;19925;-61
2024/04/14 08:11:11;;;;;;;;;;;;;;;;;;6694441;26;19926;-60
2024/04/14 08:14:17;;;;;;;;;;;;;;;;;;6694300;26;19926;-61
2024/04/14 08:17:20;;;;;;;;;;;;;;;;;;6693846;26;19926;-61
2024/04/14 08:20:25;;;;;;;;;;;;;;;;;;6693170;26;19933;-61
2024/04/14 08:23:33;;;;;;;;;;;;;;;;;;6693156;26;20299;-60
2024/04/14 08:26:35;;;;;;;;;;;;;;;;;;6693569;26;20010;-60
2024/04/14 08:29:40;;;;;;;;;;;;;;;;;;6692554;26;19925;-61
2024/04/14 08:32:43;;;;;;;;;;;;;;;;;;6693021;26;20123;-60
2024/04/14 08:35:48;;;;;;;;;;;;;;;;;;6692151;26;19933;-60
2024/04/14 08:38:56;;;;;;;;;;;;;;;;;;6693042;26;19937;-60
2024/04/14 08:41:59;;;;;;;;;;;;;;;;;;6693118;26;19929;-60
2024/04/14 08:45:04;;;;;;;;;;;;;;;;;;6692618;26;19926;-60
2024/04/14 08:48:07;;;;;;;;;;;;;;;;;;6692530;26;19933;-60
2024/04/14 08:51:12;;;;;;;;;;;;;;;;;;6692827;26;19932;-59
2024/04/14 08:54:20;;;;;;;;;;;;;;;;;;6692574;26;19932;-59
2024/04/14 08:57:26;;;;;;;;;;;;;;;;;;6693235;26;19925;-60
2024/04/14 09:00:32;;;;;;;;;;;;;;;;;;6692511;26;19926;-60
2024/04/14 09:03:37;;;;;;;;;;;;;;;;;;6692912;26;19932;-60
2024/04/14 09:06:40;;;;;;;;;;;;;;;;;;6692862;26;19933;-60
2024/04/14 09:09:49;;;;;;;;;;;;;;;;;;6691772;26;19925;-61
2024/04/14 09:12:53;;;;;;;;;;;;;;;;;;6692580;26;19926;-63
2024/04/14 09:15:58;;;;;;;;;;;;;;;;;;6692029;26;20366;-62
2024/04/14 09:19:01;;;;;;;;;;;;;;;;;;6692263;26;20208;-61
2024/04/14 09:22:07;;;;;;;;;;;;;;;;;;6689489;26;19932;-60
2024/04/14 09:25:12;;;;;;;;;;;;;;;;;;6691962;26;19926;-61
2024/04/14 09:28:22;;;;;;;;;;;;;;;;;;6691422;26;19925;-60
2024/04/14 09:31:25;;;;;;;;;;;;;;;;;;6692937;26;19926;-60
2024/04/14 09:34:30;;;;;;;;;;;;;;;;;;6691481;26;19925;-61
2024/04/14 09:37:33;;;;;;;;;;;;;;;;;;6692515;26;19929;-61
2024/04/14 09:40:41;;;;;;;;;;;;;;;;;;6691637;26;20107;-61
2024/04/14 09:43:46;;;;;;;;;;;;;;;;;;6691815;26;20008;-61
2024/04/14 09:46:49;;;;;;;;;;;;;;;;;;6694498;26;19926;-60
2024/04/14 09:49:54;;;;;;;;;;;;;;;;;;6695894;26;19956;-60
2024/04/14 09:52:59;;;;;;;;;;;;;;;;;;6696005;26;19929;-62
2024/04/14 09:56:05;;;;;;;;;;;;;;;;;;6696559;26;20250;-60
2024/04/14 09:59:10;;;;;;;;;;;;;;;;;;6695428;26;20018;-60
2024/04/14 10:02:17;;;;;;;;;;;;;;;;;;6696637;26;19925;-60
2024/04/14 10:05:23;;;;;;;;;;;;;;;;;;6695465;26;19949;-60
2024/04/14 10:08:31;;;;;;;;;;;;;;;;;;6695499;26;19925;-60
2024/04/14 10:11:36;;;;;;;;;;;;;;;;;;6696175;26;19926;-60
2024/04/14 10:14:42;;;;;;;;;;;;;;;;;;6695707;26;19925;-60
2024/04/14 10:17:45;;;;;;;;;;;;;;;;;;6696222;26;20131;-60
2024/04/14 10:20:51;;;;;;;;;;;;;;;;;;6695670;26;20197;-61
2024/04/14 10:23:55;;;;;;;;;;;;;;;;;;6695563;26;20115;-61
2024/04/14 10:27:08;;;;;;;;;;;;;;;;;;6695743;26;20127;-60
2024/04/14 10:30:17;;;;;;;;;;;;;;;;;;6695605;26;19937;-60
2024/04/14 10:33:23;;;;;;;;;;;;;;;;;;6695413;26;19925;-59
2024/04/14 10:36:27;;;;;;;;;;;;;;;;;;6695745;26;19925;-61
2024/04/14 10:39:33;;;;;;;;;;;;;;;;;;6693897;26;19929;-60
2024/04/14 10:42:38;;;;;;;;;;;;;;;;;;6695410;26;20323;-60
2024/04/14 10:45:44;;;;;;;;;;;;;;;;;;6695217;26;19937;-59
2024/04/14 10:48:46;;;;;;;;;;;;;;;;;;6695903;26;20270;-60
2024/04/14 10:51:52;;;;;;;;;;;;;;;;;;6695708;26;19953;-60
2024/04/14 10:54:54;;;;;;;;;;;;;;;;;;6695192;26;20144;-61
2024/04/14 10:58:02;;;;;;;;;;;;;;;;;;6694944;26;19929;-61
2024/04/14 11:01:05;;;;;;;;;;;;;;;;;;6695090;26;19933;-61
2024/04/14 11:04:14;;;;;;;;;;;;;;;;;;6694823;26;19925;-61
2024/04/14 11:07:17;;;;;;;;;;;;;;;;;;6663600;26;19936;-60
2024/04/14 11:10:23;;;;;;;;;;;;;;;;;;6695406;26;19925;-62
2024/04/14 11:13:29;;;;;;;;;;;;;;;;;;6694404;26;19999;-62
2024/04/14 11:16:34;;;;;;;;;;;;;;;;;;6695460;26;20014;-62
2024/04/14 11:19:37;;;;;;;;;;;;;;;;;;6695020;26;19932;-61
2024/04/14 11:22:42;;;;;;;;;;;;;;;;;;6695759;26;20007;-60
2024/04/14 11:25:47;;;;;;;;;;;;;;;;;;6694432;26;20015;-61
2024/04/14 11:28:53;;;;;;;;;;;;;;;;;;6664053;26;19949;-61
2024/04/14 11:31:58;;;;;;;;;;;;;;;;;;6693243;26;20119;-60
2024/04/14 11:35:01;;;;;;;;;;;;;;;;;;6694847;26;19932;-61
2024/04/14 11:38:06;;;;;;;;;;;;;;;;;;6663695;26;19926;-60
2024/04/14 11:41:11;;;;;;;;;;;;;;;;;;6695463;26;19926;-60
2024/04/14 11:44:17;;;;;;;;;;;;;;;;;;6695178;26;19930;-60
2024/04/14 11:47:22;;;;;;;;;;;;;;;;;;6695024;26;19938;-60
2024/04/14 11:50:25;;;;;;;;;;;;;;;;;;6694617;26;20131;-61
2024/04/14 11:53:30;;;;;;;;;;;;;;;;;;6694563;26;19925;-61
2024/04/14 11:56:33;;;;;;;;;;;;;;;;;;6694983;26;19932;-60
2024/04/14 11:59:41;;;;;;;;;;;;;;;;;;6693911;26;19925;-60
2024/04/14 12:02:44;;;;;;;;;;;;;;;;;;6695172;26;19925;-60
2024/04/14 12:05:50;;;;;;;;;;;;;;;;;;6694051;26;19926;-60
2024/04/14 12:08:55;;;;;;;;;;;;;;;;;;6693247;26;19932;-61
2024/04/14 12:11:58;;;;;;;;;;;;;;;;;;6693873;26;19933;-61
2024/04/14 12:15:06;;;;;;;;;;;;;;;;;;6694265;26;20021;-60
2024/04/14 12:18:12;;;;;;;;;;;;;;;;;;6694146;26;20057;-61
2024/04/14 12:21:18;;;;;;;;;;;;;;;;;;6694749;26;19926;-61
2024/04/14 12:24:26;;;;;;;;;;;;;;;;;;6693896;26;19933;-61
2024/04/14 12:27:28;;;;;;;;;;;;;;;;;;6695007;26;19933;-59
2024/04/14 12:30:37;;;;;;;;;;;;;;;;;;6692429;26;19925;-62
2024/04/14 12:33:51;;;;;;;;;;;;;;;;;;6694029;26;19945;-60
2024/04/14 12:36:57;;;;;;;;;;;;;;;;;;6694271;26;19925;-60
2024/04/14 12:39:59;;;;;;;;;;;;;;;;;;6693828;26;20099;-60
2024/04/14 12:43:05;;;;;;;;;;;;;;;;;;6694006;26;19954;-60
2024/04/14 12:46:10;;;;;;;;;;;;;;;;;;6659892;26;19926;-60
2024/04/14 12:49:16;;;;;;;;;;;;;;;;;;6649928;26;20127;-61
2024/04/14 12:52:21;;;;;;;;;;;;;;;;;;6651417;26;19933;-60
2024/04/14 12:55:24;;;;;;;;;;;;;;;;;;6650506;26;20163;-59
2024/04/14 12:58:29;;;;;;;;;;;;;;;;;;6650398;26;19938;-60
2024/04/14 13:01:34;;;;;;;;;;;;;;;;;;6650481;26;19942;-61
2024/04/14 13:04:43;;;;;;;;;;;;;;;;;;6650251;26;19926;-60
2024/04/14 13:07:48;;;;;;;;;;;;;;;;;;6650770;26;19930;-60
2024/04/14 13:10:54;;;;;;;;;;;;;;;;;;6671589;26;19925;-60
2024/04/14 13:13:59;;;;;;;;;;;;;;;;;;6692855;26;19926;-60
2024/04/14 13:17:05;;;;;;;;;;;;;;;;;;6693373;26;19925;-60
2024/04/14 13:20:11;;;;;;;;;;;;;;;;;;6692666;26;19925;-62
2024/04/14 13:23:14;;;;;;;;;;;;;;;;;;6692814;26;19945;-62
2024/04/14 13:26:19;;;;;;;;;;;;;;;;;;6693108;26;19932;-61
2024/04/14 13:29:22;;;;;;;;;;;;;;;;;;6692479;26;19948;-60
2024/04/14 13:32:30;;;;;;;;;;;;;;;;;;6693476;26;20001;-61
2024/04/14 13:35:36;;;;;;;;;;;;;;;;;;6692206;26;19932;-61
2024/04/14 13:38:45;;;;;;;;;;;;;;;;;;6692854;26;20003;-61
2024/04/14 13:41:47;;;;;;;;;;;;;;;;;;6693270;26;19933;-60
2024/04/14 13:44:53;;;;;;;;;;;;;;;;;;6692399;26;19925;-62
2024/04/14 13:47:58;;;;;;;;;;;;;;;;;;6692205;26;19926;-61
2024/04/14 13:51:05;;;;;;;;;;;;;;;;;;6692833;26;19926;-61
2024/04/14 13:54:08;;;;;;;;;;;;;;;;;;6692626;26;19933;-61
2024/04/14 13:57:13;;;;;;;;;;;;;;;;;;6692855;26;20274;-60
2024/04/14 14:00:16;;;;;;;;;;;;;;;;;;6692450;26;19932;-61
2024/04/14 14:03:24;;;;;;;;;;;;;;;;;;6691736;26;19925;-60
2024/04/14 14:06:27;;;;;;;;;;;;;;;;;;6692823;26;19925;-60
2024/04/14 14:09:34;;;;;;;;;;;;;;;;;;6692161;26;19926;-60
2024/04/14 14:12:39;;;;;;;;;;;;;;;;;;6691906;26;19926;-61
2024/04/14 14:15:49;;;;;;;;;;;;;;;;;;6691316;26;19933;-61
2024/04/14 14:18:57;;;;;;;;;;;;;;;;;;6691402;26;19926;-60
2024/04/14 14:22:00;;;;;;;;;;;;;;;;;;6691819;26;19926;-61
2024/04/14 14:25:06;;;;;;;;;;;;;;;;;;6691606;26;20371;-61
2024/04/14 14:28:08;;;;;;;;;;;;;;;;;;6691958;26;19933;-61
2024/04/14 14:31:14;;;;;;;;;;;;;;;;;;6691940;26;19932;-61
2024/04/14 14:37:44;;;;;;;;;;;;;;;;;;6666836;26;19933;-61
2024/04/14 14:40:49;;;;;;;;;;;;;;;;;;6665387;26;19933;-60
2024/04/14 14:43:55;;;;;;;;;;;;;;;;;;6694995;26;20278;-61
2024/04/14 14:47:00;;;;;;;;;;;;;;;;;;6695942;26;19929;-60
2024/04/14 14:50:06;;;;;;;;;;;;;;;;;;6695174;26;19925;-61
2024/04/14 14:53:11;;;;;;;;;;;;;;;;;;6695409;26;19926;-60
2024/04/14 14:56:16;;;;;;;;;;;;;;;;;;6696171;26;19925;-61
2024/04/14 14:59:19;;;;;;;;;;;;;;;;;;6695292;26;20119;-61
2024/04/14 15:02:24;;;;;;;;;;;;;;;;;;6696232;26;19925;-60
2024/04/14 15:05:29;;;;;;;;;;;;;;;;;;6695178;26;20196;-60
2024/04/14 15:08:34;;;;;;;;;;;;;;;;;;6694973;26;19926;-60
2024/04/14 15:11:40;;;;;;;;;;;;;;;;;;6695465;26;19933;-60
2024/04/14 15:14:42;;;;;;;;;;;;;;;;;;6694379;26;19952;-60
2024/04/14 15:17:48;;;;;;;;;;;;;;;;;;6695236;26;19925;-59
2024/04/14 15:20:56;;;;;;;;;;;;;;;;;;6694542;26;19925;-60
2024/04/14 15:23:59;;;;;;;;;;;;;;;;;;6694331;26;20119;-61
2024/04/14 15:27:05;;;;;;;;;;;;;;;;;;6694731;26;20107;-60
2024/04/14 15:30:08;;;;;;;;;;;;;;;;;;6694579;26;19925;-60
2024/04/14 15:33:16;;;;;;;;;;;;;;;;;;6694309;26;19941;-60
2024/04/14 15:36:21;;;;;;;;;;;;;;;;;;6694695;26;20168;-60
2024/04/14 15:39:27;;;;;;;;;;;;;;;;;;6694647;26;19932;-59
2024/04/14 15:42:30;;;;;;;;;;;;;;;;;;6693695;26;20408;-60
2024/04/14 15:45:35;;;;;;;;;;;;;;;;;;6691968;26;20110;-60
2024/04/14 15:48:38;;;;;;;;;;;;;;;;;;6693365;26;19926;-61
2024/04/14 15:51:46;;;;;;;;;;;;;;;;;;6694135;26;19929;-60
2024/04/14 15:54:50;;;;;;;;;;;;;;;;;;6693680;26;19989;-60
2024/04/14 15:57:55;;;;;;;;;;;;;;;;;;6694869;26;19926;-60
2024/04/14 16:00:58;;;;;;;;;;;;;;;;;;6693499;26;19926;-61
2024/04/14 16:04:03;;;;;;;;;;;;;;;;;;6694185;26;19933;-60
2024/04/14 16:07:09;;;;;;;;;;;;;;;;;;6695442;26;19926;-60
2024/04/14 16:10:14;;;;;;;;;;;;;;;;;;6693675;26;20024;-62
2024/04/14 16:13:19;;;;;;;;;;;;;;;;;;6693607;26;19932;-61
2024/04/14 16:16:22;;;;;;;;;;;;;;;;;;6694340;26;19944;-61
2024/04/14 16:19:27;;;;;;;;;;;;;;;;;;6692670;26;20027;-60
2024/04/14 16:22:32;;;;;;;;;;;;;;;;;;6694388;26;19949;-60
2024/04/14 16:25:38;;;;;;;;;;;;;;;;;;6693165;26;19932;-62
2024/04/14 16:28:41;;;;;;;;;;;;;;;;;;6693341;26;19926;-60
2024/04/14 16:31:46;;;;;;;;;;;;;;;;;;6694176;26;20024;-61
2024/04/14 16:34:49;;;;;;;;;;;;;;;;;;6663354;26;19925;-61
2024/04/14 16:37:57;;;;;;;;;;;;;;;;;;6694399;26;19930;-62
2024/04/14 16:41:00;;;;;;;;;;;;;;;;;;6693993;26;19964;-61
2024/04/14 16:44:05;;;;;;;;;;;;;;;;;;6692080;26;20199;-60
2024/04/14 16:47:08;;;;;;;;;;;;;;;;;;6653822;26;19925;-61
2024/04/14 16:50:13;;;;;;;;;;;;;;;;;;6693517;26;19926;-61
2024/04/14 16:53:21;;;;;;;;;;;;;;;;;;6693125;26;19933;-61
2024/04/14 16:56:24;;;;;;;;;;;;;;;;;;6690151;26;19929;-62
2024/04/14 16:59:30;;;;;;;;;;;;;;;;;;6692831;26;20223;-60
2024/04/14 17:02:35;;;;;;;;;;;;;;;;;;6693001;26;19933;-59
2024/04/14 17:05:38;;;;;;;;;;;;;;;;;;6692908;26;20130;-61
2024/04/14 17:08:46;;;;;;;;;;;;;;;;;;6692840;26;19933;-61
2024/04/14 17:11:52;;;;;;;;;;;;;;;;;;6693793;26;19926;-62
2024/04/14 17:14:57;;;;;;;;;;;;;;;;;;6692785;26;19932;-61
2024/04/14 17:18:00;;;;;;;;;;;;;;;;;;6692259;26;19926;-62
2024/04/14 17:21:06;;;;;;;;;;;;;;;;;;6693044;26;19957;-60
2024/04/14 17:24:11;;;;;;;;;;;;;;;;;;6692297;26;19933;-60
2024/04/14 17:27:16;;;;;;;;;;;;;;;;;;6692826;26;19932;-60
2024/04/14 17:30:19;;;;;;;;;;;;;;;;;;6661876;26;19926;-62
2024/04/14 17:33:24;;;;;;;;;;;;;;;;;;6692573;26;20126;-61
2024/04/14 17:36:28;;;;;;;;;;;;;;;;;;6693413;26;19932;-61
2024/04/14 17:39:36;;;;;;;;;;;;;;;;;;6692850;26;19933;-61
2024/04/14 17:42:39;;;;;;;;;;;;;;;;;;6693221;26;20124;-61
2024/04/14 17:45:48;;;;;;;;;;;;;;;;;;6691625;26;19925;-61
2024/04/14 17:48:50;;;;;;;;;;;;;;;;;;6692262;26;19925;-61
2024/04/14 17:51:56;;;;;;;;;;;;;;;;;;6691129;26;19925;-61
2024/04/14 17:55:04;;;;;;;;;;;;;;;;;;6692274;26;20119;-60
2024/04/14 17:58:06;;;;;;;;;;;;;;;;;;6652882;26;19929;-60
2024/04/14 18:01:12;;;;;;;;;;;;;;;;;;6679230;26;19926;-61
2024/04/14 18:04:14;;;;;;;;;;;;;;;;;;6690321;26;20130;-60
2024/04/14 18:07:20;;;;;;;;;;;;;;;;;;6694148;26;19929;-61
2024/04/14 18:10:26;;;;;;;;;;;;;;;;;;6697051;26;19956;-60
2024/04/14 18:13:31;;;;;;;;;;;;;;;;;;6696602;26;19925;-60
2024/04/14 18:16:37;;;;;;;;;;;;;;;;;;6697215;26;19925;-61
2024/04/14 18:19:40;;;;;;;;;;;;;;;;;;6697247;26;19930;-61
2024/04/14 18:22:45;;;;;;;;;;;;;;;;;;6697245;26;19926;-61
2024/04/14 18:25:54;;;;;;;;;;;;;;;;;;6653158;26;19933;-61
2024/04/14 18:28:56;;;;;;;;;;;;;;;;;;6680051;26;19926;-61
2024/04/14 18:32:02;;;;;;;;;;;;;;;;;;6653029;26;19926;-60
2024/04/14 18:35:05;;;;;;;;;;;;;;;;;;6652619;26;19933;-61
2024/04/14 18:38:10;;;;;;;;;;;;;;;;;;6652690;26;19926;-59
2024/04/14 18:41:15;;;;;;;;;;;;;;;;;;6652467;26;19926;-60
2024/04/14 18:44:21;;;;;;;;;;;;;;;;;;6679652;26;19926;-60
2024/04/14 18:47:24;;;;;;;;;;;;;;;;;;6680218;26;19926;-61
2024/04/14 18:50:39;;;;;;;;;;;;;;;;;;6650810;26;19938;-62
2024/04/14 18:53:42;;;;;;;;;;;;;;;;;;6651975;26;19925;-60
2024/04/14 18:56:51;;;;;;;;;;;;;;;;;;6653385;26;19930;-60
2024/04/14 18:59:57;;;;;;;;;;;;;;;;;;6653319;26;19926;-60
2024/04/14 19:03:02;;;;;;;;;;;;;;;;;;6623667;26;19926;-61
2024/04/14 19:06:07;;;;;;;;;;;;;;;;;;6612827;26;20011;-59
2024/04/14 19:09:12;;;;;;;;;;;;;;;;;;6653726;26;19926;-60
2024/04/14 19:12:18;;;;;;;;;;;;;;;;;;6695647;26;20018;-59
2024/04/14 19:15:24;;;;;;;;;;;;;;;;;;6665231;26;19932;-60
2024/04/14 19:18:26;;;;;;;;;;;;;;;;;;6665185;26;19926;-60
2024/04/14 19:21:32;;;;;;;;;;;;;;;;;;6694705;26;19936;-60
2024/04/14 19:24:35;;;;;;;;;;;;;;;;;;6695635;26;19926;-61
2024/04/14 19:27:44;;;;;;;;;;;;;;;;;;6666172;26;19933;-61
2024/04/14 19:30:49;;;;;;;;;;;;;;;;;;6665495;26;19937;-60
2024/04/14 19:33:52;;;;;;;;;;;;;;;;;;6693335;26;19926;-61
2024/04/14 19:36:57;;;;;;;;;;;;;;;;;;6695390;26;19925;-60
2024/04/14 19:40:01;;;;;;;;;;;;;;;;;;6695192;26;20423;-61
2024/04/14 19:43:09;;;;;;;;;;;;;;;;;;6694917;26;19949;-61
2024/04/14 19:46:12;;;;;;;;;;;;;;;;;;6695066;26;19925;-60
2024/04/14 19:49:17;;;;;;;;;;;;;;;;;;6665255;26;19925;-60
2024/04/14 19:52:20;;;;;;;;;;;;;;;;;;6695271;26;19929;-60
2024/04/14 19:55:26;;;;;;;;;;;;;;;;;;6695392;26;19932;-60
2024/04/14 19:58:32;;;;;;;;;;;;;;;;;;6664507;26;20019;-60
2024/04/14 20:01:38;;;;;;;;;;;;;;;;;;6687378;26;20137;-60
2024/04/14 20:04:44;;;;;;;;;;;;;;;;;;6693337;26;19932;-62
2024/04/14 20:07:50;;;;;;;;;;;;;;;;;;6694147;26;19925;-61
2024/04/14 20:10:55;;;;;;;;;;;;;;;;;;6694475;26;20109;-61
2024/04/14 20:14:00;;;;;;;;;;;;;;;;;;6732013;26;19925;-59
2024/04/14 20:17:06;;;;;;;;;;;;;;;;;;6751236;26;19925;-61
2024/04/14 20:20:11;;;;;;;;;;;;;;;;;;6732369;26;19932;-60
2024/04/14 20:23:14;;;;;;;;;;;;;;;;;;6738588;26;20086;-60
2024/04/14 20:26:19;;;;;;;;;;;;;;;;;;6738657;26;20019;-61
2024/04/14 20:29:27;;;;;;;;;;;;;;;;;;6738212;26;19933;-60
2024/04/14 20:32:30;;;;;;;;;;;;;;;;;;6738155;26;19932;-61
2024/04/14 20:35:35;;;;;;;;;;;;;;;;;;6738704;26;19925;-61
2024/04/14 20:38:43;;;;;;;;;;;;;;;;;;6739036;26;19925;-60
2024/04/14 20:41:45;;;;;;;;;;;;;;;;;;6735583;26;20011;-61
2024/04/14 20:44:53;;;;;;;;;;;;;;;;;;6735824;26;20101;-60
2024/04/14 20:47:58;;;;;;;;;;;;;;;;;;6738025;26;19925;-60
2024/04/14 20:51:04;;;;;;;;;;;;;;;;;;6734792;26;19928;-60
2024/04/14 20:54:07;;;;;;;;;;;;;;;;;;6738103;26;19925;-60
2024/04/14 20:57:12;;;;;;;;;;;;;;;;;;6737715;26;19932;-60
2024/04/14 21:00:17;;;;;;;;;;;;;;;;;;6738163;26;20123;-61
2024/04/14 21:03:23;;;;;;;;;;;;;;;;;;6704513;26;19929;-60
2024/04/14 21:06:30;;;;;;;;;;;;;;;;;;6737112;26;19925;-60